Time;durP1;ratioP1;P1;durP2;ratioP2;P2;SDS_P1;SDS_P2;PMS_P1;PMS_P2;Temp;Humidity;BMP_temperature;BMP_pressure;BME280_temperature;BME280_humidity;BME280_pressure;Samples;Min_cycle;Max_cycle;Signal;HPM_P1;HPM_P2
2022/07/06 00:01:52;;;;;;;5.78;3.97;;;;;;;;;;4177786;34;20295;-70
2022/07/06 00:04:19;;;;;;;8.65;3.30;;;;;;;;;;4165048;34;20579;-70
2022/07/06 00:32:37;;;;;;;8.35;4.40;;;;;;;;;;4891603;28;19984;-68
2022/07/06 00:35:04;;;;;;;8.43;4.07;;;;;;;;;;4164018;34;20531;-69
2022/07/06 00:37:30;;;;;;;9.90;4.72;;;;;;;;;;4177387;34;20099;-67
2022/07/06 00:39:56;;;;;;;14.45;3.95;;;;;;;;;;4177446;34;20130;-69
2022/07/06 00:42:22;;;;;;;6.78;3.72;;;;;;;;;;4177202;34;20220;-67
2022/07/06 00:44:48;;;;;;;3.78;3.20;;;;;;;;;;4177287;34;20213;-68
2022/07/06 00:47:14;;;;;;;6.85;3.55;;;;;;;;;;4177236;34;20217;-68
2022/07/06 00:52:24;;;;;;;9.55;2.95;;;;;;;;;;4177463;34;20126;-67
2022/07/06 00:54:50;;;;;;;6.35;3.50;;;;;;;;;;4164785;34;20134;-67
2022/07/06 00:57:16;;;;;;;8.52;3.87;;;;;;;;;;4177277;34;20635;-68
2022/07/06 00:59:43;;;;;;;7.93;3.78;;;;;;;;;;4164561;34;20102;-67
2022/07/06 01:02:09;;;;;;;3.70;2.50;;;;;;;;;;4177202;34;20099;-67
2022/07/06 01:04:35;;;;;;;16.27;4.22;;;;;;;;;;4177174;34;20447;-68
2022/07/06 01:07:02;;;;;;;10.10;2.65;;;;;;;;;;4177132;34;20131;-67
2022/07/06 01:09:28;;;;;;;5.93;2.45;;;;;;;;;;4164433;34;20182;-67
2022/07/06 01:11:54;;;;;;;4.10;2.53;;;;;;;;;;4177135;34;20137;-67
2022/07/06 01:14:20;;;;;;;5.00;2.90;;;;;;;;;;4164241;34;20518;-68
2022/07/06 01:16:46;;;;;;;6.05;2.50;;;;;;;;;;4164347;34;20549;-68
2022/07/06 01:19:12;;;;;;;6.00;2.50;;;;;;;;;;4164475;34;20156;-68
2022/07/06 01:21:38;;;;;;;3.47;2.30;;;;;;;;;;4177181;34;20125;-68
2022/07/06 01:24:04;;;;;;;4.87;3.08;;;;;;;;;;4163690;34;20119;-68
2022/07/06 01:26:30;;;;;;;5.78;2.92;;;;;;;;;;4176949;34;20124;-67
2022/07/06 01:28:57;;;;;;;3.08;2.62;;;;;;;;;;4176901;34;20098;-66
2022/07/06 01:31:26;;;;;;;4.00;2.80;;;;;;;;;;4177152;34;20103;-66
2022/07/06 01:33:55;;;;;;;3.35;2.47;;;;;;;;;;4176953;34;20130;-66
2022/07/06 01:36:21;;;;;;;4.50;2.35;;;;;;;;;;4153021;34;20109;-66
2022/07/06 01:38:52;;;;;;;4.55;2.70;;;;;;;;;;4176915;34;20207;-66
2022/07/06 01:41:18;;;;;;;3.55;2.55;;;;;;;;;;4177165;34;20098;-66
2022/07/06 01:43:44;;;;;;;4.82;2.15;;;;;;;;;;4152577;34;20550;-66
2022/07/06 01:46:11;;;;;;;5.37;2.67;;;;;;;;;;4176780;34;20133;-66
2022/07/06 01:48:37;;;;;;;3.08;2.42;;;;;;;;;;4164055;34;20545;-66
2022/07/06 01:51:04;;;;;;;6.10;3.08;;;;;;;;;;4164395;34;20126;-66
2022/07/06 01:53:30;;;;;;;4.95;2.58;;;;;;;;;;4176697;34;20122;-66
2022/07/06 01:55:56;;;;;;;4.87;2.78;;;;;;;;;;4176645;34;20117;-66
2022/07/06 01:58:22;;;;;;;3.53;2.40;;;;;;;;;;4164023;34;20533;-67
2022/07/06 02:00:49;;;;;;;7.43;3.75;;;;;;;;;;4163982;34;20526;-67
2022/07/06 02:03:15;;;;;;;4.43;2.42;;;;;;;;;;4176486;34;20258;-67
2022/07/06 02:05:41;;;;;;;5.43;2.10;;;;;;;;;;4163918;34;20501;-68
2022/07/06 02:08:07;;;;;;;3.25;2.12;;;;;;;;;;4163901;34;20250;-67
2022/07/06 02:10:33;;;;;;;7.35;2.17;;;;;;;;;;4176714;34;20492;-67
2022/07/06 02:12:59;;;;;;;4.90;2.65;;;;;;;;;;4176630;34;20186;-68
2022/07/06 02:15:25;;;;;;;5.07;2.50;;;;;;;;;;4176880;34;20094;-68
2022/07/06 02:17:51;;;;;;;7.25;2.20;;;;;;;;;;4176382;34;20553;-68
2022/07/06 02:20:17;;;;;;;8.88;2.60;;;;;;;;;;4176462;34;20622;-68
2022/07/06 02:22:43;;;;;;;4.03;2.53;;;;;;;;;;4176322;34;20135;-69
2022/07/06 02:25:09;;;;;;;7.60;2.90;;;;;;;;;;4163790;34;20240;-69
2022/07/06 02:27:35;;;;;;;7.30;2.80;;;;;;;;;;4176236;34;20541;-69
2022/07/06 02:30:01;;;;;;;8.70;2.90;;;;;;;;;;4176421;34;20138;-69
2022/07/06 02:32:27;;;;;;;8.35;2.60;;;;;;;;;;4176448;34;20182;-69
2022/07/06 02:34:53;;;;;;;7.57;2.50;;;;;;;;;;4163587;34;20114;-69
2022/07/06 02:37:19;;;;;;;5.68;2.50;;;;;;;;;;4178386;34;20129;-69
2022/07/06 02:39:45;;;;;;;5.35;2.75;;;;;;;;;;4178386;34;20153;-69
2022/07/06 02:42:11;;;;;;;4.75;2.62;;;;;;;;;;4178398;34;20145;-67
2022/07/06 02:44:37;;;;;;;4.45;2.72;;;;;;;;;;4178253;34;20596;-67
2022/07/06 02:47:03;;;;;;;5.43;2.20;;;;;;;;;;4165591;34;20463;-66
2022/07/06 02:49:29;;;;;;;7.43;2.33;;;;;;;;;;4178449;34;20199;-67
2022/07/06 02:51:55;;;;;;;6.12;2.50;;;;;;;;;;4178360;34;20141;-66
2022/07/06 02:54:21;;;;;;;3.85;2.28;;;;;;;;;;4165209;34;20121;-69
2022/07/06 02:56:52;;;;;;;2.40;2.20;;;;;;;;;;4165683;34;20130;-69
2022/07/06 02:59:18;;;;;;;6.62;2.78;;;;;;;;;;4178356;34;20117;-68
2022/07/06 03:01:44;;;;;;;4.43;2.60;;;;;;;;;;4178256;34;20116;-69
2022/07/06 03:04:10;;;;;;;8.23;2.30;;;;;;;;;;4177915;34;20129;-70
2022/07/06 03:06:36;;;;;;;5.75;3.12;;;;;;;;;;4165405;34;20142;-69
2022/07/06 03:09:02;;;;;;;5.07;2.28;;;;;;;;;;4154006;34;20118;-70
2022/07/06 03:11:28;;;;;;;6.05;2.20;;;;;;;;;;4165451;34;20114;-70
2022/07/06 03:13:55;;;;;;;6.50;2.40;;;;;;;;;;4165514;34;20122;-70
2022/07/06 03:16:21;;;;;;;4.05;2.40;;;;;;;;;;4165720;34;20102;-69
2022/07/06 03:18:47;;;;;;;9.68;2.60;;;;;;;;;;4177931;34;20550;-70
2022/07/06 03:21:13;;;;;;;4.25;2.67;;;;;;;;;;4178091;34;20217;-69
2022/07/06 03:23:39;;;;;;;3.72;2.70;;;;;;;;;;4178180;34;20145;-70
2022/07/06 03:26:05;;;;;;;5.65;2.65;;;;;;;;;;4178027;34;20123;-70
2022/07/06 03:28:31;;;;;;;5.60;2.00;;;;;;;;;;4177923;34;20130;-70
2022/07/06 03:30:57;;;;;;;2.60;1.60;;;;;;;;;;4165552;34;20209;-68
2022/07/06 03:33:23;;;;;;;5.15;1.95;;;;;;;;;;4177677;34;20114;-69
2022/07/06 03:35:48;;;;;;;3.75;2.10;;;;;;;;;;4178272;34;20138;-71
2022/07/06 03:38:14;;;;;;;5.97;2.40;;;;;;;;;;4178082;34;20235;-74
2022/07/06 03:40:41;;;;;;;4.82;1.92;;;;;;;;;;4154286;34;20114;-74
2022/07/06 03:43:07;;;;;;;7.45;2.12;;;;;;;;;;4154242;34;20126;-73
2022/07/06 03:45:33;;;;;;;4.35;2.00;;;;;;;;;;4165602;34;20514;-74
2022/07/06 03:47:59;;;;;;;9.10;2.40;;;;;;;;;;4177750;34;20189;-68
2022/07/06 03:50:25;;;;;;;4.12;2.60;;;;;;;;;;4178037;34;20221;-74
2022/07/06 03:52:51;;;;;;;2.45;1.92;;;;;;;;;;4165182;34;20458;-70
2022/07/06 03:55:17;;;;;;;3.00;1.92;;;;;;;;;;4178233;34;20223;-71
2022/07/06 03:57:43;;;;;;;7.15;2.20;;;;;;;;;;4165038;34;20134;-71
2022/07/06 04:00:10;;;;;;;3.42;2.10;;;;;;;;;;4142427;34;20111;-70
2022/07/06 04:02:36;;;;;;;2.70;1.90;;;;;;;;;;4177566;34;20126;-70
2022/07/06 04:05:02;;;;;;;2.67;1.70;;;;;;;;;;4177825;34;20114;-71
2022/07/06 04:07:28;;;;;;;3.28;1.92;;;;;;;;;;4177811;34;20122;-73
2022/07/06 04:09:54;;;;;;;1.77;1.60;;;;;;;;;;4177816;34;20152;-71
2022/07/06 04:12:20;;;;;;;8.48;1.87;;;;;;;;;;4164930;34;20114;-70
2022/07/06 04:14:46;;;;;;;5.00;2.00;;;;;;;;;;4177833;34;20207;-70
2022/07/06 04:19:57;;;;;;;2.53;2.33;;;;;;;;;;4178307;34;20127;-75
2022/07/06 04:22:23;;;;;;;2.25;1.50;;;;;;;;;;4177712;34;20149;-73
2022/07/06 04:24:49;;;;;;;4.80;2.35;;;;;;;;;;4153489;34;20137;-72
2022/07/06 04:27:15;;;;;;;4.90;1.77;;;;;;;;;;4177531;34;20585;-72
2022/07/06 04:29:41;;;;;;;1.90;1.70;;;;;;;;;;4177617;34;20125;-71
2022/07/06 04:32:07;;;;;;;2.83;1.92;;;;;;;;;;4177473;34;20478;-71
2022/07/06 04:34:33;;;;;;;5.22;1.83;;;;;;;;;;4177305;34;20143;-72
2022/07/06 04:36:59;;;;;;;5.65;2.70;;;;;;;;;;4177499;34;20462;-72
2022/07/06 04:39:26;;;;;;;3.95;1.95;;;;;;;;;;4164702;34;20484;-71
2022/07/06 04:41:52;;;;;;;1.80;1.70;;;;;;;;;;4177459;34;20124;-71
2022/07/06 04:44:18;;;;;;;3.15;1.90;;;;;;;;;;4177313;34;20186;-72
2022/07/06 04:46:43;;;;;;;8.05;1.90;;;;;;;;;;4165042;34;20238;-72
2022/07/06 04:49:10;;;;;;;2.12;1.50;;;;;;;;;;4177252;34;20141;-72
2022/07/06 04:51:36;;;;;;;2.78;1.50;;;;;;;;;;4164629;34;20136;-72
2022/07/06 04:54:04;;;;;;;2.30;1.62;;;;;;;;;;4177651;34;20198;-72
2022/07/06 04:56:30;;;;;;;2.75;1.98;;;;;;;;;;4177368;34;20131;-72
2022/07/06 04:58:56;;;;;;;3.30;1.85;;;;;;;;;;4176518;34;20212;-71
2022/07/06 05:01:22;;;;;;;3.62;1.60;;;;;;;;;;4177279;34;20221;-71
2022/07/06 05:03:48;;;;;;;6.85;1.62;;;;;;;;;;4177106;34;20099;-72
2022/07/06 05:06:15;;;;;;;3.12;1.77;;;;;;;;;;4177262;34;20539;-68
2022/07/06 05:08:41;;;;;;;7.12;1.75;;;;;;;;;;4177141;34;20154;-71
2022/07/06 05:11:07;;;;;;;5.50;1.70;;;;;;;;;;4177174;34;20217;-71
2022/07/06 05:13:33;;;;;;;3.83;1.85;;;;;;;;;;4164754;34;20090;-72
2022/07/06 05:15:59;;;;;;;5.00;1.60;;;;;;;;;;4177304;34;20129;-72
2022/07/06 05:18:25;;;;;;;3.55;1.70;;;;;;;;;;4177093;34;20094;-71
2022/07/06 05:20:51;;;;;;;1.95;1.55;;;;;;;;;;4177080;34;20538;-70
2022/07/06 05:23:18;;;;;;;2.28;1.50;;;;;;;;;;4164352;34;20126;-71
2022/07/06 05:25:43;;;;;;;2.50;1.30;;;;;;;;;;4177202;34;20125;-71
2022/07/06 05:28:09;;;;;;;4.28;1.70;;;;;;;;;;4177035;34;20111;-75
2022/07/06 05:30:35;;;;;;;3.08;1.95;;;;;;;;;;4177097;34;20114;-71
2022/07/06 05:33:01;;;;;;;6.32;1.40;;;;;;;;;;4177021;34;20241;-71
2022/07/06 05:35:27;;;;;;;1.95;1.62;;;;;;;;;;4176963;34;20145;-71
2022/07/06 05:37:53;;;;;;;1.48;1.37;;;;;;;;;;4177022;34;20235;-72
2022/07/06 05:40:19;;;;;;;2.00;1.00;;;;;;;;;;4177074;34;20209;-72
2022/07/06 05:42:45;;;;;;;1.08;1.08;;;;;;;;;;4177077;34;20123;-71
2022/07/06 05:45:11;;;;;;;1.20;1.10;;;;;;;;;;4176905;34;20122;-71
2022/07/06 05:50:21;;;;;;;1.27;1.17;;;;;;;;;;4164521;34;20090;-71
2022/07/06 05:53:03;;;;;;;2.72;1.73;;;;;;;;;;4153135;34;20102;-70
2022/07/06 05:55:29;;;;;;;2.55;1.30;;;;;;;;;;4164365;34;20488;-70
2022/07/06 05:57:55;;;;;;;1.65;1.50;;;;;;;;;;4176937;34;20115;-71
2022/07/06 06:00:23;;;;;;;1.50;1.40;;;;;;;;;;4176817;34;20115;-71
2022/07/06 06:02:49;;;;;;;1.00;1.00;;;;;;;;;;4176743;34;20126;-70
2022/07/06 06:05:16;;;;;;;1.52;1.37;;;;;;;;;;4176844;34;20134;-70
2022/07/06 06:07:42;;;;;;;2.15;1.30;;;;;;;;;;4152782;34;20111;-71
2022/07/06 06:10:11;;;;;;;1.55;1.45;;;;;;;;;;4153701;34;20205;-71
2022/07/06 06:12:37;;;;;;;4.22;1.45;;;;;;;;;;4178605;34;20142;-72
2022/07/06 06:15:04;;;;;;;1.37;1.27;;;;;;;;;;4178945;34;20105;-72
2022/07/06 06:17:31;;;;;;;1.65;1.30;;;;;;;;;;4178567;34;20495;-72
2022/07/06 06:19:57;;;;;;;1.15;1.10;;;;;;;;;;4178758;34;20114;-72
2022/07/06 06:22:23;;;;;;;1.37;1.27;;;;;;;;;;4178608;34;20125;-71
2022/07/06 06:24:49;;;;;;;1.12;1.12;;;;;;;;;;4178843;34;20509;-72
2022/07/06 06:27:15;;;;;;;2.95;1.60;;;;;;;;;;4166092;34;20140;-72
2022/07/06 06:29:43;;;;;;;1.10;1.10;;;;;;;;;;4178751;34;20260;-72
2022/07/06 06:32:11;;;;;;;1.40;1.30;;;;;;;;;;4132578;34;20096;-72
2022/07/06 06:34:38;;;;;;;6.65;1.62;;;;;;;;;;4178351;34;20620;-73
2022/07/06 06:37:04;;;;;;;1.10;1.10;;;;;;;;;;4179187;34;20130;-71
2022/07/06 06:39:30;;;;;;;1.00;1.00;;;;;;;;;;4154768;34;20105;-73
2022/07/06 06:41:56;;;;;;;1.30;1.20;;;;;;;;;;4178958;34;20134;-73
2022/07/06 06:44:23;;;;;;;1.30;1.20;;;;;;;;;;4165578;34;20126;-72
2022/07/06 06:46:52;;;;;;;1.45;1.35;;;;;;;;;;4178870;34;20129;-73
2022/07/06 06:49:18;;;;;;;2.00;1.40;;;;;;;;;;4178816;34;20109;-71
2022/07/06 06:51:45;;;;;;;2.70;1.37;;;;;;;;;;4178669;34;20114;-71
2022/07/06 06:54:11;;;;;;;1.60;1.50;;;;;;;;;;4178742;34;20103;-74
2022/07/06 06:56:37;;;;;;;1.10;1.10;;;;;;;;;;4178500;34;20213;-72
2022/07/06 06:59:03;;;;;;;0.80;0.80;;;;;;;;;;4178338;34;20132;-71
2022/07/06 07:01:29;;;;;;;2.15;1.37;;;;;;;;;;4178302;34;20142;-72
2022/07/06 07:03:55;;;;;;;1.95;1.33;;;;;;;;;;4178229;34;20122;-72
2022/07/06 07:06:21;;;;;;;1.50;1.40;;;;;;;;;;4178307;34;20130;-71
2022/07/06 07:08:48;;;;;;;5.55;1.58;;;;;;;;;;4178347;34;20132;-71
2022/07/06 07:11:14;;;;;;;1.20;1.05;;;;;;;;;;4178444;34;20137;-70
2022/07/06 07:13:40;;;;;;;2.00;1.10;;;;;;;;;;4178265;34;20533;-71
2022/07/06 07:16:06;;;;;;;1.92;1.33;;;;;;;;;;4165589;34;20137;-71
2022/07/06 07:18:32;;;;;;;1.60;1.40;;;;;;;;;;4178341;34;20211;-69
2022/07/06 07:20:58;;;;;;;1.20;1.20;;;;;;;;;;4164946;34;20131;-71
2022/07/06 07:23:24;;;;;;;1.17;1.10;;;;;;;;;;4178079;34;20142;-74
2022/07/06 07:25:50;;;;;;;1.10;1.10;;;;;;;;;;4178228;34;20765;-73
2022/07/06 07:28:16;;;;;;;2.55;1.30;;;;;;;;;;4178207;34;20106;-75
2022/07/06 07:30:42;;;;;;;5.55;2.00;;;;;;;;;;4165824;34;20474;-71
2022/07/06 07:33:08;;;;;;;1.95;1.37;;;;;;;;;;4177930;34;20122;-72
2022/07/06 07:35:34;;;;;;;1.60;1.50;;;;;;;;;;4178239;34;20602;-73
2022/07/06 07:38:00;;;;;;;1.37;1.30;;;;;;;;;;4165272;34;20298;-72
2022/07/06 07:40:27;;;;;;;1.15;1.10;;;;;;;;;;4178269;34;20125;-71
2022/07/06 07:42:53;;;;;;;1.02;1.02;;;;;;;;;;4178190;34;20526;-74
2022/07/06 07:45:19;;;;;;;1.10;1.10;;;;;;;;;;4178434;34;20111;-71
2022/07/06 07:47:45;;;;;;;1.40;1.30;;;;;;;;;;4178158;34;20238;-73
2022/07/06 07:50:11;;;;;;;2.35;1.48;;;;;;;;;;4177925;34;20114;-74
2022/07/06 07:52:37;;;;;;;1.30;1.20;;;;;;;;;;4177982;34;20126;-74
2022/07/06 07:55:03;;;;;;;1.85;1.50;;;;;;;;;;4165362;34;20189;-74
2022/07/06 07:57:29;;;;;;;1.30;1.30;;;;;;;;;;4177832;34;20158;-75
2022/07/06 07:59:55;;;;;;;1.25;1.23;;;;;;;;;;4178091;34;20193;-71
2022/07/06 08:02:21;;;;;;;1.60;1.50;;;;;;;;;;4177799;34;20126;-69
2022/07/06 08:04:47;;;;;;;5.05;1.25;;;;;;;;;;4177604;34;20111;-71
2022/07/06 08:07:13;;;;;;;1.10;1.10;;;;;;;;;;4177697;34;20193;-71
2022/07/06 08:09:39;;;;;;;1.15;1.15;;;;;;;;;;4177727;34;20118;-70
2022/07/06 08:12:05;;;;;;;1.40;1.30;;;;;;;;;;4177840;34;20227;-71
2022/07/06 08:14:32;;;;;;;1.42;1.27;;;;;;;;;;4177583;34;20486;-70
2022/07/06 08:16:58;;;;;;;1.20;1.20;;;;;;;;;;4153651;34;20125;-69
2022/07/06 08:19:24;;;;;;;0.95;0.95;;;;;;;;;;4177606;34;20207;-70
2022/07/06 08:21:50;;;;;;;7.57;1.60;;;;;;;;;;4177861;34;20540;-68
2022/07/06 08:24:16;;;;;;;1.10;1.00;;;;;;;;;;4177509;34;20642;-70
2022/07/06 08:26:42;;;;;;;1.40;1.30;;;;;;;;;;4177529;34;20140;-70
2022/07/06 08:29:26;;;;;;;1.20;1.10;;;;;;;;;;4177493;34;20507;-70
2022/07/06 08:31:52;;;;;;;1.40;1.20;;;;;;;;;;4177583;34;20456;-67
2022/07/06 08:34:18;;;;;;;1.00;1.00;;;;;;;;;;4176352;34;20181;-68
2022/07/06 08:36:44;;;;;;;1.40;1.30;;;;;;;;;;4164556;34;20193;-67
2022/07/06 08:39:10;;;;;;;1.15;1.10;;;;;;;;;;4177585;34;20439;-69
2022/07/06 08:41:38;;;;;;;3.70;1.25;;;;;;;;;;4177452;34;20134;-67
2022/07/06 08:44:04;;;;;;;3.45;1.50;;;;;;;;;;4165073;34;20130;-68
2022/07/06 08:46:30;;;;;;;1.65;1.30;;;;;;;;;;4178112;34;20130;-69
2022/07/06 08:48:57;;;;;;;1.37;1.27;;;;;;;;;;4177339;34;20193;-68
2022/07/06 08:51:24;;;;;;;1.48;1.37;;;;;;;;;;4177347;34;20601;-68
2022/07/06 08:53:51;;;;;;;1.17;1.17;;;;;;;;;;4177450;34;20491;-68
2022/07/06 08:56:19;;;;;;;6.85;1.33;;;;;;;;;;4164511;34;20116;-68
2022/07/06 08:58:45;;;;;;;7.70;1.35;;;;;;;;;;4164987;34;20133;-68
2022/07/06 09:01:11;;;;;;;1.40;1.30;;;;;;;;;;4177587;34;20117;-69
2022/07/06 09:03:40;;;;;;;0.98;0.98;;;;;;;;;;4164314;34;20145;-67
2022/07/06 09:06:06;;;;;;;2.10;1.50;;;;;;;;;;4164565;34;20521;-67
2022/07/06 09:08:35;;;;;;;1.50;1.40;;;;;;;;;;4177368;34;20099;-67
2022/07/06 09:11:01;;;;;;;0.88;0.88;;;;;;;;;;4153232;34;20095;-68
2022/07/06 09:13:27;;;;;;;2.92;1.37;;;;;;;;;;4177076;34;20108;-68
2022/07/06 09:15:52;;;;;;;1.00;1.00;;;;;;;;;;4177060;34;20572;-69
2022/07/06 09:18:21;;;;;;;1.00;1.00;;;;;;;;;;4177111;34;20181;-66
2022/07/06 09:20:47;;;;;;;1.40;1.30;;;;;;;;;;4177356;34;20117;-68
2022/07/06 09:23:16;;;;;;;1.45;1.20;;;;;;;;;;4176940;34;20110;-68
2022/07/06 09:25:42;;;;;;;2.35;1.27;;;;;;;;;;4177042;34;20094;-68
2022/07/06 09:28:08;;;;;;;0.95;0.95;;;;;;;;;;4176943;34;20503;-68
2022/07/06 09:30:39;;;;;;;1.50;1.30;;;;;;;;;;4177040;34;20201;-68
2022/07/06 09:33:08;;;;;;;1.58;1.40;;;;;;;;;;4176845;34;20087;-68
2022/07/06 09:35:39;;;;;;;1.10;1.10;;;;;;;;;;4141840;34;20213;-68
2022/07/06 09:38:10;;;;;;;1.73;1.35;;;;;;;;;;4153078;34;20110;-69
2022/07/06 09:40:39;;;;;;;1.20;1.12;;;;;;;;;;4176867;34;20475;-69
2022/07/06 09:43:10;;;;;;;2.60;1.60;;;;;;;;;;4177018;34;20187;-69
2022/07/06 09:45:38;;;;;;;2.05;1.10;;;;;;;;;;4163678;34;20173;-69
2022/07/06 09:48:09;;;;;;;1.30;1.20;;;;;;;;;;4164314;34;20126;-69
2022/07/06 09:50:46;;;;;;;2.67;1.23;;;;;;;;;;4153042;34;20099;-69
2022/07/06 09:53:13;;;;;;;1.00;1.00;;;;;;;;;;4177038;34;20147;-69
2022/07/06 09:55:46;;;;;;;1.00;1.00;;;;;;;;;;4152915;34;20165;-69
2022/07/06 09:58:14;;;;;;;1.12;1.10;;;;;;;;;;4163959;34;20241;-68
2022/07/06 10:00:42;;;;;;;1.58;1.48;;;;;;;;;;4164072;34;20487;-69
2022/07/06 10:03:09;;;;;;;1.15;1.08;;;;;;;;;;4176490;34;20138;-68
2022/07/06 10:05:39;;;;;;;11.80;1.65;;;;;;;;;;4176769;34;20499;-68
2022/07/06 10:08:05;;;;;;;1.10;1.10;;;;;;;;;;4163929;34;20138;-67
2022/07/06 10:10:32;;;;;;;1.20;1.20;;;;;;;;;;4163770;34;20129;-67
2022/07/06 10:12:59;;;;;;;1.40;1.30;;;;;;;;;;4163809;34;20099;-70
2022/07/06 10:15:27;;;;;;;4.25;1.50;;;;;;;;;;4164089;34;20499;-68
2022/07/06 10:17:54;;;;;;;1.27;1.17;;;;;;;;;;4176449;34;20111;-69
2022/07/06 10:20:20;;;;;;;1.45;1.30;;;;;;;;;;4163846;34;20182;-69
2022/07/06 10:22:49;;;;;;;1.00;1.00;;;;;;;;;;4176492;34;20157;-69
2022/07/06 10:25:16;;;;;;;1.35;1.25;;;;;;;;;;4163889;34;20169;-68
2022/07/06 10:27:43;;;;;;;2.05;1.20;;;;;;;;;;4176423;34;20130;-69
2022/07/06 10:30:09;;;;;;;1.40;1.30;;;;;;;;;;4176391;34;20174;-70
2022/07/06 10:32:38;;;;;;;1.00;1.00;;;;;;;;;;4176284;34;20833;-68
2022/07/06 10:35:04;;;;;;;1.10;1.10;;;;;;;;;;4176327;34;20097;-69
2022/07/06 10:37:32;;;;;;;1.27;1.12;;;;;;;;;;4176192;34;20215;-69
2022/07/06 10:42:43;;;;;;;1.15;1.12;;;;;;;;;;4154168;34;20105;-68
2022/07/06 10:45:14;;;;;;;1.65;1.20;;;;;;;;;;4152091;34;20135;-68
2022/07/06 10:47:41;;;;;;;2.87;1.40;;;;;;;;;;4176184;34;20201;-70
2022/07/06 10:50:08;;;;;;;1.02;1.02;;;;;;;;;;4176309;34;20115;-69
2022/07/06 10:52:50;;;;;;;1.73;1.42;;;;;;;;;;4176030;34;20107;-67
2022/07/06 10:55:29;;;;;;;3.00;1.20;;;;;;;;;;4176282;34;20115;-68
2022/07/06 10:57:56;;;;;;;2.22;1.33;;;;;;;;;;4177966;34;20214;-68
2022/07/06 11:00:22;;;;;;;1.40;1.33;;;;;;;;;;4165743;34;20128;-68
2022/07/06 11:02:48;;;;;;;2.37;1.23;;;;;;;;;;4165403;34;20110;-73
2022/07/06 11:05:43;;;;;;;1.70;1.37;;;;;;;;;;4178276;34;20115;-68
2022/07/06 11:08:10;;;;;;;1.08;1.08;;;;;;;;;;4165808;34;20180;-68
2022/07/06 11:10:49;;;;;;;1.50;1.40;;;;;;;;;;4165482;34;20220;-68
2022/07/06 11:13:28;;;;;;;2.05;1.48;;;;;;;;;;4178328;34;20102;-68
2022/07/06 11:16:03;;;;;;;1.85;1.33;;;;;;;;;;4178080;34;20138;-68
2022/07/06 11:18:39;;;;;;;1.52;1.42;;;;;;;;;;4178129;34;20696;-67
2022/07/06 11:21:18;;;;;;;1.40;1.30;;;;;;;;;;4178351;34;20101;-67
2022/07/06 11:23:47;;;;;;;2.40;1.58;;;;;;;;;;4178206;34;20134;-66
2022/07/06 11:26:13;;;;;;;2.03;1.42;;;;;;;;;;4154546;34;20101;-67
2022/07/06 11:28:39;;;;;;;2.08;1.45;;;;;;;;;;4178027;34;20530;-66
2022/07/06 11:31:05;;;;;;;2.95;1.60;;;;;;;;;;4178300;34;20134;-67
2022/07/06 11:33:31;;;;;;;1.02;1.02;;;;;;;;;;4177812;34;20230;-67
2022/07/06 11:36:16;;;;;;;1.10;1.00;;;;;;;;;;4178036;34;20559;-67
2022/07/06 11:38:43;;;;;;;2.58;1.30;;;;;;;;;;4177966;34;20103;-66
2022/07/06 11:41:11;;;;;;;1.50;1.37;;;;;;;;;;4165370;34;20219;-67
2022/07/06 11:43:39;;;;;;;1.20;1.20;;;;;;;;;;4178039;34;20118;-67
2022/07/06 11:46:05;;;;;;;1.92;1.50;;;;;;;;;;4165298;34;20095;-68
2022/07/06 11:48:31;;;;;;;3.33;1.60;;;;;;;;;;4177820;34;20203;-68
2022/07/06 11:51:00;;;;;;;1.08;1.05;;;;;;;;;;4165208;34;20141;-70
2022/07/06 11:53:26;;;;;;;1.30;1.20;;;;;;;;;;4165155;34;20103;-67
2022/07/06 11:55:53;;;;;;;4.47;1.30;;;;;;;;;;4177916;34;20126;-69
2022/07/06 11:58:22;;;;;;;1.42;1.33;;;;;;;;;;4177911;34;20195;-69
2022/07/06 12:01:07;;;;;;;1.17;1.17;;;;;;;;;;4177900;34;20198;-69
2022/07/06 12:03:34;;;;;;;1.83;1.37;;;;;;;;;;4177702;34;20118;-68
2022/07/06 12:06:04;;;;;;;1.80;1.40;;;;;;;;;;4177810;34;20098;-69
2022/07/06 12:08:33;;;;;;;0.95;0.95;;;;;;;;;;4177790;34;20113;-70
2022/07/06 12:11:00;;;;;;;1.05;1.05;;;;;;;;;;4154039;34;20446;-67
2022/07/06 12:13:26;;;;;;;1.92;1.40;;;;;;;;;;4177806;34;20094;-68
2022/07/06 12:15:52;;;;;;;1.25;1.17;;;;;;;;;;4177664;34;20213;-72
2022/07/06 12:18:18;;;;;;;1.10;1.10;;;;;;;;;;4177758;34;20206;-72
2022/07/06 12:20:44;;;;;;;1.80;1.33;;;;;;;;;;4177930;34;20129;-72
2022/07/06 12:23:10;;;;;;;2.42;1.42;;;;;;;;;;4177749;34;20207;-69
2022/07/06 12:25:37;;;;;;;4.37;1.60;;;;;;;;;;4177569;34;20127;-69
2022/07/06 12:28:03;;;;;;;1.40;1.30;;;;;;;;;;4164888;34;20118;-68
2022/07/06 12:30:30;;;;;;;1.23;1.12;;;;;;;;;;4165095;34;20395;-68
2022/07/06 12:33:15;;;;;;;1.45;1.25;;;;;;;;;;4177284;34;20195;-69
2022/07/06 12:35:41;;;;;;;;;;;;;;;;;;4177902;34;20546;-71
2022/07/06 12:38:08;;;;;;;5.97;1.42;;;;;;;;;;4177615;34;20048;-72
2022/07/06 12:40:36;;;;;;;1.40;1.27;;;;;;;;;;4177760;34;20086;-68
2022/07/06 12:43:05;;;;;;;2.40;1.20;;;;;;;;;;4164741;34;20094;-67
2022/07/06 12:45:32;;;;;;;1.35;1.25;;;;;;;;;;4153304;34;20122;-68
2022/07/06 12:48:02;;;;;;;1.00;1.00;;;;;;;;;;4164713;34;20267;-68
2022/07/06 12:50:35;;;;;;;2.72;1.25;;;;;;;;;;4177418;34;20533;-67
2022/07/06 12:53:02;;;;;;;1.00;1.00;;;;;;;;;;4164753;34;20664;-68
2022/07/06 12:55:29;;;;;;;4.10;1.55;;;;;;;;;;4177514;34;20114;-68
2022/07/06 12:57:56;;;;;;;2.35;1.23;;;;;;;;;;4177855;34;20091;-69
2022/07/06 13:00:22;;;;;;;1.08;1.08;;;;;;;;;;4165041;34;20090;-69
2022/07/06 13:02:53;;;;;;;3.72;1.80;;;;;;;;;;4177607;34;20220;-70
2022/07/06 13:05:30;;;;;;;4.03;1.70;;;;;;;;;;4177238;34;20090;-70
2022/07/06 13:07:57;;;;;;;3.45;1.40;;;;;;;;;;4164592;34;20195;-71
2022/07/06 13:10:25;;;;;;;4.82;1.50;;;;;;;;;;4177165;34;20102;-70
2022/07/06 13:12:52;;;;;;;3.12;1.90;;;;;;;;;;4164484;34;20451;-69
2022/07/06 13:15:18;;;;;;;3.50;1.92;;;;;;;;;;4164465;34;20130;-69
2022/07/06 13:17:44;;;;;;;2.08;1.85;;;;;;;;;;4177013;34;20126;-70
2022/07/06 13:20:12;;;;;;;1.70;1.60;;;;;;;;;;4152451;34;20203;-68
2022/07/06 13:22:38;;;;;;;1.52;1.40;;;;;;;;;;4164436;34;20145;-68
2022/07/06 13:25:05;;;;;;;3.17;1.50;;;;;;;;;;4177013;34;20116;-68
2022/07/06 13:27:31;;;;;;;4.03;1.40;;;;;;;;;;4176919;34;20525;-69
2022/07/06 13:29:57;;;;;;;3.70;1.50;;;;;;;;;;4177038;34;20218;-67
2022/07/06 13:32:23;;;;;;;1.90;1.50;;;;;;;;;;4177078;34;20113;-69
2022/07/06 13:34:49;;;;;;;1.37;1.10;;;;;;;;;;4176929;34;20087;-69
2022/07/06 13:37:15;;;;;;;8.02;1.60;;;;;;;;;;4176957;34;20121;-69
2022/07/06 13:39:41;;;;;;;1.50;1.40;;;;;;;;;;4164211;34;20122;-70
2022/07/06 13:42:08;;;;;;;1.58;1.48;;;;;;;;;;4176806;34;20129;-70
2022/07/06 13:44:35;;;;;;;2.47;1.65;;;;;;;;;;4176710;34;20515;-69
2022/07/06 13:47:01;;;;;;;2.03;1.70;;;;;;;;;;4176822;34;20145;-69
2022/07/06 13:49:27;;;;;;;1.50;1.40;;;;;;;;;;4176827;34;20110;-69
2022/07/06 13:51:54;;;;;;;1.30;1.20;;;;;;;;;;4176783;34;20208;-69
2022/07/06 13:54:20;;;;;;;5.37;1.48;;;;;;;;;;4176852;34;20099;-69
2022/07/06 13:56:47;;;;;;;1.42;1.30;;;;;;;;;;4176791;34;20122;-69
2022/07/06 13:59:13;;;;;;;1.85;1.20;;;;;;;;;;4176814;34;20448;-69
2022/07/06 14:01:38;;;;;;;1.77;1.40;;;;;;;;;;4176796;34;20109;-67
2022/07/06 14:04:05;;;;;;;5.62;1.62;;;;;;;;;;4176749;34;20126;-68
2022/07/06 14:06:31;;;;;;;5.78;1.58;;;;;;;;;;4176755;34;20158;-69
2022/07/06 14:08:57;;;;;;;3.40;1.45;;;;;;;;;;4163758;34;20204;-68
2022/07/06 14:11:23;;;;;;;1.77;1.50;;;;;;;;;;4176574;34;20193;-68
2022/07/06 14:13:49;;;;;;;1.50;1.40;;;;;;;;;;4176809;34;20114;-68
2022/07/06 14:16:15;;;;;;;1.73;1.62;;;;;;;;;;4176535;34;20132;-68
2022/07/06 14:18:43;;;;;;;1.80;1.60;;;;;;;;;;4176343;34;20123;-69
2022/07/06 14:21:09;;;;;;;1.20;1.10;;;;;;;;;;4176421;34;20098;-68
2022/07/06 14:23:35;;;;;;;2.22;1.50;;;;;;;;;;4176416;34;20122;-69
2022/07/06 14:26:01;;;;;;;3.17;1.62;;;;;;;;;;4176447;34;20143;-67
2022/07/06 14:28:27;;;;;;;2.20;1.20;;;;;;;;;;4176526;34;20110;-68
2022/07/06 14:30:53;;;;;;;1.55;1.45;;;;;;;;;;4177324;34;20129;-70
2022/07/06 14:33:19;;;;;;;4.15;1.42;;;;;;;;;;4178396;34;20511;-68
2022/07/06 14:35:47;;;;;;;1.83;1.60;;;;;;;;;;4165971;34;20099;-68
2022/07/06 14:38:14;;;;;;;5.75;1.85;;;;;;;;;;4178539;34;20110;-68
2022/07/06 14:40:40;;;;;;;2.08;1.60;;;;;;;;;;4178479;34;20215;-68
2022/07/06 14:43:06;;;;;;;1.70;1.33;;;;;;;;;;4178271;34;20134;-70
2022/07/06 14:45:32;;;;;;;1.42;1.33;;;;;;;;;;4178464;34;20542;-69
2022/07/06 14:47:58;;;;;;;1.73;1.48;;;;;;;;;;4178437;34;20616;-68
2022/07/06 14:50:25;;;;;;;1.67;1.58;;;;;;;;;;4178469;34;20217;-69
2022/07/06 14:52:54;;;;;;;1.48;1.37;;;;;;;;;;4178358;34;20424;-67
2022/07/06 14:55:21;;;;;;;1.30;1.20;;;;;;;;;;4178283;34;20195;-68
2022/07/06 14:57:47;;;;;;;1.50;1.40;;;;;;;;;;4178273;34;20094;-67
2022/07/06 15:00:14;;;;;;;10.13;1.60;;;;;;;;;;4165905;34;20106;-69
2022/07/06 15:02:41;;;;;;;5.37;1.60;;;;;;;;;;4178262;34;20126;-73
2022/07/06 15:05:08;;;;;;;3.65;1.50;;;;;;;;;;4178244;34;20174;-69
2022/07/06 15:07:34;;;;;;;1.50;1.40;;;;;;;;;;4178297;34;20538;-69
2022/07/06 15:10:00;;;;;;;2.10;1.65;;;;;;;;;;4178275;34;20110;-69
2022/07/06 15:12:26;;;;;;;1.98;1.50;;;;;;;;;;4178076;34;20524;-68
2022/07/06 15:14:52;;;;;;;2.12;1.77;;;;;;;;;;4178233;34;20098;-68
2022/07/06 15:17:18;;;;;;;4.03;1.42;;;;;;;;;;4177776;34;20121;-68
2022/07/06 15:19:44;;;;;;;5.80;1.70;;;;;;;;;;4175921;34;20126;-68